sensor_id;sensor_type;location;lat;lon;timestamp;P1;durP1;ratioP1;P2;durP2;ratioP2
34134;SDS011;20410;55.578;12.968;2023-06-19T00:01:54;8.85;;;8.05;;
34134;SDS011;20410;55.578;12.968;2023-06-19T00:04:20;10.40;;;9.50;;
34134;SDS011;20410;55.578;12.968;2023-06-19T00:06:45;8.50;;;7.80;;
34134;SDS011;20410;55.578;12.968;2023-06-19T00:09:11;10.35;;;9.45;;
34134;SDS011;20410;55.578;12.968;2023-06-19T00:11:36;8.75;;;8.05;;
34134;SDS011;20410;55.578;12.968;2023-06-19T00:14:02;8.52;;;7.82;;
34134;SDS011;20410;55.578;12.968;2023-06-19T00:16:28;9.38;;;8.43;;
34134;SDS011;20410;55.578;12.968;2023-06-19T00:18:53;11.10;;;10.10;;
34134;SDS011;20410;55.578;12.968;2023-06-19T00:21:22;9.98;;;9.07;;
34134;SDS011;20410;55.578;12.968;2023-06-19T00:23:52;11.15;;;10.15;;
34134;SDS011;20410;55.578;12.968;2023-06-19T00:26:18;11.07;;;10.07;;
34134;SDS011;20410;55.578;12.968;2023-06-19T00:28:47;11.45;;;10.32;;
34134;SDS011;20410;55.578;12.968;2023-06-19T00:31:13;11.50;;;10.50;;
34134;SDS011;20410;55.578;12.968;2023-06-19T00:33:40;12.80;;;11.70;;
34134;SDS011;20410;55.578;12.968;2023-06-19T00:36:12;9.52;;;8.73;;
34134;SDS011;20410;55.578;12.968;2023-06-19T00:38:39;11.60;;;10.60;;
34134;SDS011;20410;55.578;12.968;2023-06-19T00:41:05;11.63;;;10.68;;
34134;SDS011;20410;55.578;12.968;2023-06-19T00:43:31;11.00;;;10.00;;
34134;SDS011;20410;55.578;12.968;2023-06-19T00:45:57;9.95;;;9.05;;
34134;SDS011;20410;55.578;12.968;2023-06-19T00:48:23;10.05;;;9.10;;
34134;SDS011;20410;55.578;12.968;2023-06-19T00:50:49;10.55;;;9.65;;
34134;SDS011;20410;55.578;12.968;2023-06-19T00:53:15;11.48;;;10.38;;
34134;SDS011;20410;55.578;12.968;2023-06-19T00:55:42;12.23;;;11.23;;
34134;SDS011;20410;55.578;12.968;2023-06-19T00:58:09;8.95;;;8.15;;
34134;SDS011;20410;55.578;12.968;2023-06-19T01:00:35;10.93;;;9.65;;
34134;SDS011;20410;55.578;12.968;2023-06-19T01:03:01;9.63;;;8.82;;
34134;SDS011;20410;55.578;12.968;2023-06-19T01:05:26;10.95;;;10.05;;
34134;SDS011;20410;55.578;12.968;2023-06-19T01:07:55;8.50;;;7.80;;
34134;SDS011;20410;55.578;12.968;2023-06-19T01:10:28;10.73;;;9.77;;
34134;SDS011;20410;55.578;12.968;2023-06-19T01:13:01;10.10;;;9.30;;
34134;SDS011;20410;55.578;12.968;2023-06-19T01:15:32;11.25;;;10.25;;
34134;SDS011;20410;55.578;12.968;2023-06-19T01:17:59;10.52;;;9.63;;
34134;SDS011;20410;55.578;12.968;2023-06-19T01:20:25;8.83;;;8.03;;
34134;SDS011;20410;55.578;12.968;2023-06-19T01:22:51;9.83;;;8.90;;
34134;SDS011;20410;55.578;12.968;2023-06-19T01:25:16;9.68;;;8.88;;
34134;SDS011;20410;55.578;12.968;2023-06-19T01:27:42;11.40;;;10.35;;
34134;SDS011;20410;55.578;12.968;2023-06-19T01:30:08;12.57;;;11.37;;
34134;SDS011;20410;55.578;12.968;2023-06-19T01:35:25;11.63;;;10.63;;
34134;SDS011;20410;55.578;12.968;2023-06-19T01:37:53;9.80;;;8.90;;
34134;SDS011;20410;55.578;12.968;2023-06-19T01:40:20;10.97;;;9.97;;
34134;SDS011;20410;55.578;12.968;2023-06-19T01:42:49;10.67;;;9.77;;
34134;SDS011;20410;55.578;12.968;2023-06-19T01:45:16;11.10;;;10.20;;
34134;SDS011;20410;55.578;12.968;2023-06-19T01:47:42;11.50;;;10.50;;
34134;SDS011;20410;55.578;12.968;2023-06-19T01:50:08;10.30;;;9.40;;
34134;SDS011;20410;55.578;12.968;2023-06-19T01:52:35;12.20;;;11.00;;
34134;SDS011;20410;55.578;12.968;2023-06-19T01:55:01;10.47;;;9.60;;
34134;SDS011;20410;55.578;12.968;2023-06-19T01:57:27;10.47;;;9.63;;
34134;SDS011;20410;55.578;12.968;2023-06-19T01:59:53;11.63;;;10.63;;
34134;SDS011;20410;55.578;12.968;2023-06-19T02:02:18;10.33;;;9.43;;
34134;SDS011;20410;55.578;12.968;2023-06-19T02:04:44;10.47;;;9.57;;
34134;SDS011;20410;55.578;12.968;2023-06-19T02:07:09;12.37;;;11.27;;
34134;SDS011;20410;55.578;12.968;2023-06-19T02:09:35;9.50;;;8.80;;
34134;SDS011;20410;55.578;12.968;2023-06-19T02:12:02;11.67;;;10.67;;
34134;SDS011;20410;55.578;12.968;2023-06-19T02:14:28;13.63;;;12.50;;
34134;SDS011;20410;55.578;12.968;2023-06-19T02:16:54;12.73;;;11.70;;
34134;SDS011;20410;55.578;12.968;2023-06-19T02:19:19;11.10;;;10.20;;
34134;SDS011;20410;55.578;12.968;2023-06-19T02:21:45;12.57;;;11.53;;
34134;SDS011;20410;55.578;12.968;2023-06-19T02:24:10;10.17;;;9.27;;
34134;SDS011;20410;55.578;12.968;2023-06-19T02:26:36;11.47;;;10.43;;
34134;SDS011;20410;55.578;12.968;2023-06-19T02:29:02;14.30;;;13.00;;
34134;SDS011;20410;55.578;12.968;2023-06-19T02:31:27;9.77;;;8.87;;
34134;SDS011;20410;55.578;12.968;2023-06-19T02:33:53;9.37;;;8.57;;
34134;SDS011;20410;55.578;12.968;2023-06-19T02:36:18;11.27;;;10.27;;
34134;SDS011;20410;55.578;12.968;2023-06-19T02:38:45;8.20;;;7.50;;
34134;SDS011;20410;55.578;12.968;2023-06-19T02:41:11;9.57;;;8.77;;
34134;SDS011;20410;55.578;12.968;2023-06-19T02:43:37;9.80;;;8.90;;
34134;SDS011;20410;55.578;12.968;2023-06-19T02:46:03;10.63;;;9.73;;
34134;SDS011;20410;55.578;12.968;2023-06-19T02:48:29;10.00;;;9.07;;
34134;SDS011;20410;55.578;12.968;2023-06-19T02:50:55;9.93;;;9.13;;
34134;SDS011;20410;55.578;12.968;2023-06-19T02:53:20;11.10;;;10.10;;
34134;SDS011;20410;55.578;12.968;2023-06-19T02:55:46;11.50;;;10.43;;
34134;SDS011;20410;55.578;12.968;2023-06-19T02:58:11;8.90;;;8.13;;
34134;SDS011;20410;55.578;12.968;2023-06-19T03:00:37;8.13;;;7.43;;
34134;SDS011;20410;55.578;12.968;2023-06-19T03:03:02;10.67;;;9.70;;
34134;SDS011;20410;55.578;12.968;2023-06-19T03:05:28;10.40;;;9.47;;
34134;SDS011;20410;55.578;12.968;2023-06-19T03:07:54;11.40;;;10.40;;
34134;SDS011;20410;55.578;12.968;2023-06-19T03:10:19;11.17;;;10.17;;
34134;SDS011;20410;55.578;12.968;2023-06-19T03:12:45;13.90;;;12.70;;
34134;SDS011;20410;55.578;12.968;2023-06-19T03:15:10;12.73;;;11.53;;
34134;SDS011;20410;55.578;12.968;2023-06-19T03:17:36;10.50;;;9.60;;
34134;SDS011;20410;55.578;12.968;2023-06-19T03:20:02;12.37;;;11.30;;
34134;SDS011;20410;55.578;12.968;2023-06-19T03:22:28;13.57;;;12.30;;
34134;SDS011;20410;55.578;12.968;2023-06-19T03:24:54;12.20;;;11.10;;
34134;SDS011;20410;55.578;12.968;2023-06-19T03:27:19;13.13;;;12.00;;
34134;SDS011;20410;55.578;12.968;2023-06-19T03:29:45;10.67;;;9.80;;
34134;SDS011;20410;55.578;12.968;2023-06-19T03:32:10;12.27;;;11.13;;
34134;SDS011;20410;55.578;12.968;2023-06-19T03:34:36;13.03;;;11.87;;
34134;SDS011;20410;55.578;12.968;2023-06-19T03:37:01;11.80;;;10.80;;
34134;SDS011;20410;55.578;12.968;2023-06-19T03:39:27;13.17;;;12.03;;
34134;SDS011;20410;55.578;12.968;2023-06-19T03:41:53;14.33;;;12.97;;
34134;SDS011;20410;55.578;12.968;2023-06-19T03:44:18;14.02;;;12.73;;
34134;SDS011;20410;55.578;12.968;2023-06-19T03:46:44;15.07;;;13.60;;
34134;SDS011;20410;55.578;12.968;2023-06-19T03:49:09;14.57;;;13.32;;
34134;SDS011;20410;55.578;12.968;2023-06-19T03:51:35;13.15;;;11.68;;
34134;SDS011;20410;55.578;12.968;2023-06-19T03:54:01;11.77;;;10.77;;
34134;SDS011;20410;55.578;12.968;2023-06-19T03:56:26;12.95;;;11.82;;
34134;SDS011;20410;55.578;12.968;2023-06-19T03:58:52;14.32;;;13.13;;
34134;SDS011;20410;55.578;12.968;2023-06-19T04:01:18;13.93;;;12.63;;
34134;SDS011;20410;55.578;12.968;2023-06-19T04:03:43;14.93;;;13.52;;
34134;SDS011;20410;55.578;12.968;2023-06-19T04:06:09;15.77;;;14.35;;
34134;SDS011;20410;55.578;12.968;2023-06-19T04:08:34;14.10;;;12.70;;
34134;SDS011;20410;55.578;12.968;2023-06-19T04:11:00;17.55;;;15.85;;
34134;SDS011;20410;55.578;12.968;2023-06-19T04:13:25;18.85;;;17.08;;
34134;SDS011;20410;55.578;12.968;2023-06-19T04:15:51;17.90;;;16.30;;
34134;SDS011;20410;55.578;12.968;2023-06-19T04:18:17;17.95;;;16.40;;
34134;SDS011;20410;55.578;12.968;2023-06-19T04:20:43;18.70;;;16.90;;
34134;SDS011;20410;55.578;12.968;2023-06-19T04:23:08;19.50;;;17.70;;
34134;SDS011;20410;55.578;12.968;2023-06-19T04:25:34;20.50;;;18.70;;
34134;SDS011;20410;55.578;12.968;2023-06-19T04:28:00;19.77;;;17.70;;
34134;SDS011;20410;55.578;12.968;2023-06-19T04:30:28;21.17;;;19.27;;
34134;SDS011;20410;55.578;12.968;2023-06-19T04:32:55;21.80;;;19.85;;
34134;SDS011;20410;55.578;12.968;2023-06-19T04:35:22;21.85;;;19.95;;
34134;SDS011;20410;55.578;12.968;2023-06-19T04:37:48;22.83;;;20.85;;
34134;SDS011;20410;55.578;12.968;2023-06-19T04:40:14;21.85;;;19.92;;
34134;SDS011;20410;55.578;12.968;2023-06-19T04:42:40;22.85;;;20.80;;
34134;SDS011;20410;55.578;12.968;2023-06-19T04:45:06;22.05;;;20.15;;
34134;SDS011;20410;55.578;12.968;2023-06-19T04:47:32;22.58;;;20.60;;
34134;SDS011;20410;55.578;12.968;2023-06-19T04:49:58;22.08;;;20.15;;
34134;SDS011;20410;55.578;12.968;2023-06-19T04:52:24;23.73;;;21.52;;
34134;SDS011;20410;55.578;12.968;2023-06-19T04:54:50;23.75;;;21.42;;
34134;SDS011;20410;55.578;12.968;2023-06-19T04:57:15;22.02;;;19.73;;
34134;SDS011;20410;55.578;12.968;2023-06-19T04:59:42;20.42;;;18.63;;
34134;SDS011;20410;55.578;12.968;2023-06-19T05:02:09;19.20;;;17.38;;
34134;SDS011;20410;55.578;12.968;2023-06-19T05:04:35;19.27;;;17.52;;
34134;SDS011;20410;55.578;12.968;2023-06-19T05:07:01;20.95;;;17.52;;
34134;SDS011;20410;55.578;12.968;2023-06-19T05:09:27;16.35;;;14.82;;
34134;SDS011;20410;55.578;12.968;2023-06-19T05:11:53;17.05;;;15.30;;
34134;SDS011;20410;55.578;12.968;2023-06-19T05:14:19;16.10;;;14.38;;
34134;SDS011;20410;55.578;12.968;2023-06-19T05:16:44;15.20;;;13.70;;
34134;SDS011;20410;55.578;12.968;2023-06-19T05:19:10;15.48;;;13.93;;
34134;SDS011;20410;55.578;12.968;2023-06-19T05:21:36;15.00;;;13.70;;
34134;SDS011;20410;55.578;12.968;2023-06-19T05:24:01;14.70;;;13.25;;
34134;SDS011;20410;55.578;12.968;2023-06-19T05:26:27;11.60;;;10.55;;
34134;SDS011;20410;55.578;12.968;2023-06-19T05:28:53;13.35;;;12.07;;
34134;SDS011;20410;55.578;12.968;2023-06-19T05:31:18;13.38;;;12.18;;
34134;SDS011;20410;55.578;12.968;2023-06-19T05:33:44;13.27;;;12.07;;
34134;SDS011;20410;55.578;12.968;2023-06-19T05:36:10;13.18;;;11.98;;
34134;SDS011;20410;55.578;12.968;2023-06-19T05:38:36;13.95;;;12.75;;
34134;SDS011;20410;55.578;12.968;2023-06-19T05:41:02;13.10;;;11.90;;
34134;SDS011;20410;55.578;12.968;2023-06-19T05:43:28;13.82;;;12.43;;
34134;SDS011;20410;55.578;12.968;2023-06-19T05:45:54;12.68;;;11.50;;
34134;SDS011;20410;55.578;12.968;2023-06-19T05:48:24;11.50;;;10.45;;
34134;SDS011;20410;55.578;12.968;2023-06-19T05:50:50;12.65;;;11.52;;
34134;SDS011;20410;55.578;12.968;2023-06-19T05:53:16;10.38;;;8.77;;
34134;SDS011;20410;55.578;12.968;2023-06-19T05:55:42;10.35;;;9.35;;
34134;SDS011;20410;55.578;12.968;2023-06-19T05:58:08;10.77;;;9.77;;
34134;SDS011;20410;55.578;12.968;2023-06-19T06:00:34;12.77;;;11.65;;
34134;SDS011;20410;55.578;12.968;2023-06-19T06:02:59;14.50;;;13.15;;
34134;SDS011;20410;55.578;12.968;2023-06-19T06:05:25;13.85;;;12.63;;
34134;SDS011;20410;55.578;12.968;2023-06-19T06:07:51;12.27;;;11.10;;
34134;SDS011;20410;55.578;12.968;2023-06-19T06:10:19;10.48;;;9.57;;
34134;SDS011;20410;55.578;12.968;2023-06-19T06:12:49;12.18;;;11.00;;
34134;SDS011;20410;55.578;12.968;2023-06-19T06:15:14;8.02;;;7.32;;
34134;SDS011;20410;55.578;12.968;2023-06-19T06:17:40;9.48;;;8.48;;
34134;SDS011;20410;55.578;12.968;2023-06-19T06:20:06;7.10;;;6.50;;
34134;SDS011;20410;55.578;12.968;2023-06-19T06:22:39;9.85;;;8.95;;
34134;SDS011;20410;55.578;12.968;2023-06-19T06:25:05;10.75;;;9.75;;
34134;SDS011;20410;55.578;12.968;2023-06-19T06:27:31;8.98;;;8.18;;
34134;SDS011;20410;55.578;12.968;2023-06-19T06:29:57;8.50;;;7.70;;
34134;SDS011;20410;55.578;12.968;2023-06-19T06:32:23;10.45;;;9.45;;
34134;SDS011;20410;55.578;12.968;2023-06-19T06:34:48;9.50;;;8.70;;
34134;SDS011;20410;55.578;12.968;2023-06-19T06:37:14;10.38;;;9.38;;
34134;SDS011;20410;55.578;12.968;2023-06-19T06:39:42;10.60;;;9.65;;
34134;SDS011;20410;55.578;12.968;2023-06-19T06:42:08;10.63;;;9.73;;
34134;SDS011;20410;55.578;12.968;2023-06-19T06:44:33;11.48;;;10.48;;
34134;SDS011;20410;55.578;12.968;2023-06-19T06:46:59;12.32;;;11.23;;
34134;SDS011;20410;55.578;12.968;2023-06-19T06:49:24;9.90;;;9.10;;
34134;SDS011;20410;55.578;12.968;2023-06-19T06:51:50;10.27;;;9.48;;
34134;SDS011;20410;55.578;12.968;2023-06-19T06:54:16;10.85;;;9.95;;
34134;SDS011;20410;55.578;12.968;2023-06-19T06:56:41;12.02;;;10.98;;
34134;SDS011;20410;55.578;12.968;2023-06-19T06:59:08;13.65;;;12.18;;
34134;SDS011;20410;55.578;12.968;2023-06-19T07:01:34;9.20;;;8.43;;
34134;SDS011;20410;55.578;12.968;2023-06-19T07:03:59;8.80;;;8.00;;
34134;SDS011;20410;55.578;12.968;2023-06-19T07:06:25;9.65;;;8.85;;
34134;SDS011;20410;55.578;12.968;2023-06-19T07:08:51;9.00;;;8.20;;
34134;SDS011;20410;55.578;12.968;2023-06-19T07:11:16;8.70;;;7.85;;
34134;SDS011;20410;55.578;12.968;2023-06-19T07:13:42;8.55;;;7.45;;
34134;SDS011;20410;55.578;12.968;2023-06-19T07:16:07;7.82;;;7.13;;
34134;SDS011;20410;55.578;12.968;2023-06-19T07:18:33;9.00;;;8.15;;
34134;SDS011;20410;55.578;12.968;2023-06-19T07:21:00;9.20;;;8.32;;
34134;SDS011;20410;55.578;12.968;2023-06-19T07:23:27;8.93;;;8.13;;
34134;SDS011;20410;55.578;12.968;2023-06-19T07:25:53;9.25;;;8.35;;
34134;SDS011;20410;55.578;12.968;2023-06-19T07:28:18;8.98;;;7.75;;
34134;SDS011;20410;55.578;12.968;2023-06-19T07:30:44;7.72;;;6.97;;
34134;SDS011;20410;55.578;12.968;2023-06-19T07:33:12;6.93;;;6.30;;
34134;SDS011;20410;55.578;12.968;2023-06-19T07:35:38;6.75;;;6.18;;
34134;SDS011;20410;55.578;12.968;2023-06-19T07:38:03;7.93;;;7.13;;
34134;SDS011;20410;55.578;12.968;2023-06-19T07:40:29;7.45;;;6.60;;
34134;SDS011;20410;55.578;12.968;2023-06-19T07:42:55;7.32;;;6.63;;
34134;SDS011;20410;55.578;12.968;2023-06-19T07:45:20;7.47;;;6.78;;
34134;SDS011;20410;55.578;12.968;2023-06-19T07:47:54;6.75;;;6.13;;
34134;SDS011;20410;55.578;12.968;2023-06-19T07:50:21;7.78;;;6.82;;
34134;SDS011;20410;55.578;12.968;2023-06-19T07:52:46;6.32;;;5.78;;
34134;SDS011;20410;55.578;12.968;2023-06-19T07:55:12;6.70;;;5.85;;
34134;SDS011;20410;55.578;12.968;2023-06-19T07:57:38;6.70;;;5.85;;
34134;SDS011;20410;55.578;12.968;2023-06-19T08:00:03;6.30;;;5.75;;
34134;SDS011;20410;55.578;12.968;2023-06-19T08:02:39;5.78;;;5.28;;
34134;SDS011;20410;55.578;12.968;2023-06-19T08:05:06;5.95;;;5.40;;
34134;SDS011;20410;55.578;12.968;2023-06-19T08:07:33;10.82;;;8.38;;
34134;SDS011;20410;55.578;12.968;2023-06-19T08:09:59;12.55;;;11.25;;
34134;SDS011;20410;55.578;12.968;2023-06-19T08:12:25;9.40;;;8.60;;
34134;SDS011;20410;55.578;12.968;2023-06-19T08:14:51;8.05;;;7.35;;
34134;SDS011;20410;55.578;12.968;2023-06-19T08:17:16;8.05;;;7.35;;
34134;SDS011;20410;55.578;12.968;2023-06-19T08:19:42;7.47;;;6.72;;
34134;SDS011;20410;55.578;12.968;2023-06-19T08:22:08;7.30;;;6.70;;
34134;SDS011;20410;55.578;12.968;2023-06-19T08:24:34;7.75;;;7.05;;
34134;SDS011;20410;55.578;12.968;2023-06-19T08:27:07;6.40;;;5.80;;
34134;SDS011;20410;55.578;12.968;2023-06-19T08:29:32;7.10;;;6.50;;
34134;SDS011;20410;55.578;12.968;2023-06-19T08:31:58;7.25;;;6.65;;
34134;SDS011;20410;55.578;12.968;2023-06-19T08:34:24;7.95;;;5.97;;
34134;SDS011;20410;55.578;12.968;2023-06-19T08:36:50;6.80;;;6.20;;
34134;SDS011;20410;55.578;12.968;2023-06-19T08:39:16;6.88;;;6.28;;
34134;SDS011;20410;55.578;12.968;2023-06-19T08:41:42;7.30;;;6.70;;
34134;SDS011;20410;55.578;12.968;2023-06-19T08:44:08;7.00;;;6.30;;
34134;SDS011;20410;55.578;12.968;2023-06-19T08:46:34;7.70;;;6.45;;
34134;SDS011;20410;55.578;12.968;2023-06-19T08:49:02;6.75;;;6.18;;
34134;SDS011;20410;55.578;12.968;2023-06-19T08:51:28;6.75;;;6.15;;
34134;SDS011;20410;55.578;12.968;2023-06-19T08:54:01;7.05;;;5.93;;
34134;SDS011;20410;55.578;12.968;2023-06-19T08:56:28;7.22;;;5.88;;
34134;SDS011;20410;55.578;12.968;2023-06-19T08:59:06;6.00;;;5.50;;
34134;SDS011;20410;55.578;12.968;2023-06-19T09:01:34;6.72;;;5.78;;
34134;SDS011;20410;55.578;12.968;2023-06-19T09:03:59;5.60;;;5.10;;
34134;SDS011;20410;55.578;12.968;2023-06-19T09:06:32;7.03;;;6.35;;
34134;SDS011;20410;55.578;12.968;2023-06-19T09:08:58;6.95;;;6.32;;
34134;SDS011;20410;55.578;12.968;2023-06-19T09:11:25;6.72;;;6.13;;
34134;SDS011;20410;55.578;12.968;2023-06-19T09:13:56;7.07;;;5.90;;
34134;SDS011;20410;55.578;12.968;2023-06-19T09:16:23;6.07;;;5.57;;
34134;SDS011;20410;55.578;12.968;2023-06-19T09:18:49;6.28;;;5.78;;
34134;SDS011;20410;55.578;12.968;2023-06-19T09:21:18;6.47;;;5.20;;
34134;SDS011;20410;55.578;12.968;2023-06-19T09:23:47;5.60;;;5.10;;
34134;SDS011;20410;55.578;12.968;2023-06-19T09:26:16;7.45;;;5.65;;
34134;SDS011;20410;55.578;12.968;2023-06-19T09:28:43;5.82;;;5.30;;
34134;SDS011;20410;55.578;12.968;2023-06-19T09:31:09;5.72;;;5.22;;
34134;SDS011;20410;55.578;12.968;2023-06-19T09:33:35;5.82;;;5.25;;
34134;SDS011;20410;55.578;12.968;2023-06-19T09:36:02;5.93;;;5.32;;
34134;SDS011;20410;55.578;12.968;2023-06-19T09:38:32;6.13;;;5.63;;
34134;SDS011;20410;55.578;12.968;2023-06-19T09:41:03;6.20;;;5.70;;
34134;SDS011;20410;55.578;12.968;2023-06-19T09:46:09;6.15;;;5.63;;
34134;SDS011;20410;55.578;12.968;2023-06-19T09:48:41;6.22;;;5.63;;
34134;SDS011;20410;55.578;12.968;2023-06-19T09:51:22;6.00;;;5.40;;
34134;SDS011;20410;55.578;12.968;2023-06-19T09:53:58;5.60;;;5.10;;
34134;SDS011;20410;55.578;12.968;2023-06-19T09:56:27;7.65;;;5.00;;
34134;SDS011;20410;55.578;12.968;2023-06-19T09:58:53;7.03;;;5.15;;
34134;SDS011;20410;55.578;12.968;2023-06-19T10:01:21;5.35;;;4.85;;
34134;SDS011;20410;55.578;12.968;2023-06-19T10:03:48;5.25;;;4.85;;
34134;SDS011;20410;55.578;12.968;2023-06-19T10:06:14;5.53;;;4.93;;
34134;SDS011;20410;55.578;12.968;2023-06-19T10:08:41;5.38;;;4.88;;
34134;SDS011;20410;55.578;12.968;2023-06-19T10:11:09;5.53;;;4.70;;
34134;SDS011;20410;55.578;12.968;2023-06-19T10:13:36;4.82;;;4.43;;
34134;SDS011;20410;55.578;12.968;2023-06-19T10:16:06;4.90;;;4.50;;
34134;SDS011;20410;55.578;12.968;2023-06-19T10:18:51;5.00;;;4.50;;
34134;SDS011;20410;55.578;12.968;2023-06-19T10:21:20;4.68;;;4.28;;
34134;SDS011;20410;55.578;12.968;2023-06-19T10:23:56;7.50;;;4.55;;
34134;SDS011;20410;55.578;12.968;2023-06-19T10:26:33;5.95;;;4.35;;
34134;SDS011;20410;55.578;12.968;2023-06-19T10:28:59;5.75;;;4.50;;
34134;SDS011;20410;55.578;12.968;2023-06-19T10:31:25;5.22;;;4.57;;
34134;SDS011;20410;55.578;12.968;2023-06-19T10:33:53;4.75;;;4.35;;
34134;SDS011;20410;55.578;12.968;2023-06-19T10:36:20;4.88;;;4.47;;
34134;SDS011;20410;55.578;12.968;2023-06-19T10:38:48;4.47;;;4.07;;
34134;SDS011;20410;55.578;12.968;2023-06-19T10:41:17;5.43;;;4.57;;
34134;SDS011;20410;55.578;12.968;2023-06-19T10:43:54;5.18;;;4.68;;
34134;SDS011;20410;55.578;12.968;2023-06-19T10:46:22;4.93;;;4.53;;
34134;SDS011;20410;55.578;12.968;2023-06-19T10:48:49;4.78;;;4.38;;
34134;SDS011;20410;55.578;12.968;2023-06-19T10:51:18;4.47;;;4.07;;
34134;SDS011;20410;55.578;12.968;2023-06-19T10:53:45;4.82;;;4.45;;
34134;SDS011;20410;55.578;12.968;2023-06-19T10:56:10;4.97;;;4.57;;
34134;SDS011;20410;55.578;12.968;2023-06-19T10:58:36;5.93;;;4.30;;
34134;SDS011;20410;55.578;12.968;2023-06-19T11:01:02;5.43;;;4.88;;
34134;SDS011;20410;55.578;12.968;2023-06-19T11:03:28;5.00;;;4.60;;
34134;SDS011;20410;55.578;12.968;2023-06-19T11:05:54;5.28;;;4.78;;
34134;SDS011;20410;55.578;12.968;2023-06-19T11:08:20;4.50;;;4.10;;
34134;SDS011;20410;55.578;12.968;2023-06-19T11:10:47;5.40;;;4.90;;
34134;SDS011;20410;55.578;12.968;2023-06-19T11:13:17;5.95;;;5.10;;
34134;SDS011;20410;55.578;12.968;2023-06-19T11:15:44;4.45;;;4.05;;
34134;SDS011;20410;55.578;12.968;2023-06-19T11:18:10;5.20;;;4.13;;
34134;SDS011;20410;55.578;12.968;2023-06-19T11:20:50;6.93;;;4.00;;
34134;SDS011;20410;55.578;12.968;2023-06-19T11:23:16;4.25;;;3.85;;
34134;SDS011;20410;55.578;12.968;2023-06-19T11:25:53;4.95;;;4.03;;
34134;SDS011;20410;55.578;12.968;2023-06-19T11:28:21;5.60;;;3.97;;
34134;SDS011;20410;55.578;12.968;2023-06-19T11:30:47;4.60;;;4.20;;
34134;SDS011;20410;55.578;12.968;2023-06-19T11:33:22;4.50;;;4.10;;
34134;SDS011;20410;55.578;12.968;2023-06-19T11:35:53;4.88;;;3.60;;
34134;SDS011;20410;55.578;12.968;2023-06-19T11:38:20;4.13;;;3.60;;
34134;SDS011;20410;55.578;12.968;2023-06-19T11:40:47;4.00;;;3.70;;
34134;SDS011;20410;55.578;12.968;2023-06-19T11:43:26;4.38;;;3.97;;
34134;SDS011;20410;55.578;12.968;2023-06-19T11:45:53;4.30;;;3.85;;
34134;SDS011;20410;55.578;12.968;2023-06-19T11:48:23;4.15;;;3.75;;
34134;SDS011;20410;55.578;12.968;2023-06-19T11:50:49;4.38;;;3.78;;
34134;SDS011;20410;55.578;12.968;2023-06-19T11:53:16;5.93;;;3.70;;
34134;SDS011;20410;55.578;12.968;2023-06-19T11:55:41;3.80;;;3.50;;
34134;SDS011;20410;55.578;12.968;2023-06-19T11:58:08;4.00;;;3.58;;
34134;SDS011;20410;55.578;12.968;2023-06-19T12:00:35;5.45;;;3.33;;
34134;SDS011;20410;55.578;12.968;2023-06-19T12:03:01;3.60;;;3.30;;
34134;SDS011;20410;55.578;12.968;2023-06-19T12:05:27;3.92;;;3.25;;
34134;SDS011;20410;55.578;12.968;2023-06-19T12:07:52;3.78;;;3.47;;
34134;SDS011;20410;55.578;12.968;2023-06-19T12:10:18;4.13;;;3.65;;
34134;SDS011;20410;55.578;12.968;2023-06-19T12:12:44;4.57;;;3.83;;
34134;SDS011;20410;55.578;12.968;2023-06-19T12:15:09;5.95;;;3.83;;
34134;SDS011;20410;55.578;12.968;2023-06-19T12:17:35;4.55;;;3.53;;
34134;SDS011;20410;55.578;12.968;2023-06-19T12:20:02;4.10;;;3.70;;
34134;SDS011;20410;55.578;12.968;2023-06-19T12:22:32;3.80;;;3.50;;
34134;SDS011;20410;55.578;12.968;2023-06-19T12:24:59;3.83;;;3.53;;
34134;SDS011;20410;55.578;12.968;2023-06-19T12:27:25;4.20;;;3.80;;
34134;SDS011;20410;55.578;12.968;2023-06-19T12:29:50;3.92;;;3.63;;
34134;SDS011;20410;55.578;12.968;2023-06-19T12:32:16;3.97;;;3.67;;
34134;SDS011;20410;55.578;12.968;2023-06-19T12:34:41;4.35;;;3.50;;
34134;SDS011;20410;55.578;12.968;2023-06-19T12:37:11;4.85;;;3.80;;
34134;SDS011;20410;55.578;12.968;2023-06-19T12:39:42;3.90;;;3.60;;
34134;SDS011;20410;55.578;12.968;2023-06-19T12:42:08;3.72;;;3.38;;
34134;SDS011;20410;55.578;12.968;2023-06-19T12:44:36;5.05;;;3.40;;
34134;SDS011;20410;55.578;12.968;2023-06-19T12:47:02;3.75;;;3.45;;
34134;SDS011;20410;55.578;12.968;2023-06-19T12:49:29;4.18;;;3.78;;
34134;SDS011;20410;55.578;12.968;2023-06-19T12:51:55;4.72;;;3.40;;
34134;SDS011;20410;55.578;12.968;2023-06-19T12:54:21;4.20;;;3.80;;
34134;SDS011;20410;55.578;12.968;2023-06-19T12:56:47;3.88;;;3.50;;
34134;SDS011;20410;55.578;12.968;2023-06-19T12:59:13;4.70;;;3.65;;
34134;SDS011;20410;55.578;12.968;2023-06-19T13:01:38;3.70;;;3.40;;
34134;SDS011;20410;55.578;12.968;2023-06-19T13:04:04;4.05;;;3.50;;
34134;SDS011;20410;55.578;12.968;2023-06-19T13:06:29;5.40;;;3.50;;
34134;SDS011;20410;55.578;12.968;2023-06-19T13:08:55;5.63;;;3.58;;
34134;SDS011;20410;55.578;12.968;2023-06-19T13:11:21;6.03;;;3.50;;
34134;SDS011;20410;55.578;12.968;2023-06-19T13:13:46;3.70;;;3.40;;
34134;SDS011;20410;55.578;12.968;2023-06-19T13:16:12;3.72;;;3.42;;
34134;SDS011;20410;55.578;12.968;2023-06-19T13:18:38;4.03;;;3.42;;
34134;SDS011;20410;55.578;12.968;2023-06-19T13:21:03;3.38;;;3.08;;
34134;SDS011;20410;55.578;12.968;2023-06-19T13:23:29;4.05;;;3.50;;
34134;SDS011;20410;55.578;12.968;2023-06-19T13:25:56;3.40;;;3.10;;
34134;SDS011;20410;55.578;12.968;2023-06-19T13:28:22;3.60;;;3.30;;
34134;SDS011;20410;55.578;12.968;2023-06-19T13:30:47;3.70;;;3.40;;
34134;SDS011;20410;55.578;12.968;2023-06-19T13:33:14;4.75;;;3.30;;
34134;SDS011;20410;55.578;12.968;2023-06-19T13:35:39;3.95;;;3.65;;
34134;SDS011;20410;55.578;12.968;2023-06-19T13:38:05;3.97;;;3.58;;
34134;SDS011;20410;55.578;12.968;2023-06-19T13:40:31;3.83;;;3.53;;
34134;SDS011;20410;55.578;12.968;2023-06-19T13:42:57;3.60;;;3.30;;
34134;SDS011;20410;55.578;12.968;2023-06-19T13:45:23;9.18;;;3.38;;
34134;SDS011;20410;55.578;12.968;2023-06-19T13:47:50;3.60;;;3.25;;
34134;SDS011;20410;55.578;12.968;2023-06-19T13:50:16;4.28;;;3.10;;
34134;SDS011;20410;55.578;12.968;2023-06-19T13:52:44;3.60;;;3.30;;
34134;SDS011;20410;55.578;12.968;2023-06-19T13:55:11;4.47;;;3.67;;
34134;SDS011;20410;55.578;12.968;2023-06-19T13:57:38;3.85;;;3.42;;
34134;SDS011;20410;55.578;12.968;2023-06-19T14:00:05;5.22;;;3.25;;
34134;SDS011;20410;55.578;12.968;2023-06-19T14:02:32;4.72;;;3.70;;
34134;SDS011;20410;55.578;12.968;2023-06-19T14:04:58;4.63;;;4.03;;
34134;SDS011;20410;55.578;12.968;2023-06-19T14:07:24;5.68;;;4.00;;
34134;SDS011;20410;55.578;12.968;2023-06-19T14:09:51;5.15;;;3.83;;
34134;SDS011;20410;55.578;12.968;2023-06-19T14:12:18;3.90;;;3.60;;
34134;SDS011;20410;55.578;12.968;2023-06-19T14:14:44;4.32;;;3.92;;
34134;SDS011;20410;55.578;12.968;2023-06-19T14:17:10;4.47;;;3.80;;
34134;SDS011;20410;55.578;12.968;2023-06-19T14:19:36;4.72;;;3.97;;
34134;SDS011;20410;55.578;12.968;2023-06-19T14:22:01;5.85;;;3.85;;
34134;SDS011;20410;55.578;12.968;2023-06-19T14:24:27;5.22;;;3.95;;
34134;SDS011;20410;55.578;12.968;2023-06-19T14:26:52;4.32;;;3.92;;
34134;SDS011;20410;55.578;12.968;2023-06-19T14:29:18;6.15;;;4.47;;